createdAt,value
2022-09-12T00:00:33.380Z,14.68
2022-09-12T00:03:01.905Z,14.78
2022-09-12T00:05:29.148Z,14.79
2022-09-12T00:07:56.641Z,14.78
2022-09-12T00:10:23.965Z,14.81
2022-09-12T00:12:51.905Z,14.83
2022-09-12T00:15:19.361Z,14.80
2022-09-12T00:17:46.592Z,14.77
2022-09-12T00:20:15.305Z,14.67
2022-09-12T00:22:42.524Z,14.65
2022-09-12T00:25:09.794Z,14.65
2022-09-12T00:27:37.051Z,14.74
2022-09-12T00:30:05.396Z,14.75
2022-09-12T00:32:32.753Z,14.81
2022-09-12T00:34:59.988Z,14.71
2022-09-12T00:37:28.925Z,14.65
2022-09-12T00:39:57.289Z,14.57
2022-09-12T00:42:24.524Z,14.63
2022-09-12T00:44:52.756Z,14.50
2022-09-12T00:47:24.424Z,14.50
2022-09-12T00:49:58.072Z,14.45
2022-09-12T00:52:31.690Z,14.42
2022-09-12T00:55:05.433Z,14.40
2022-09-12T00:57:37.461Z,14.38
2022-09-12T01:00:11.193Z,14.48
2022-09-12T01:02:38.684Z,14.40
2022-09-12T01:05:07.045Z,14.38
2022-09-12T01:07:39.913Z,14.31
2022-09-12T01:10:09.845Z,14.27
2022-09-12T01:12:40.551Z,14.27
2022-09-12T01:15:08.957Z,14.24
2022-09-12T01:17:47.733Z,14.31
2022-09-12T01:20:41.709Z,14.37
2022-09-12T01:23:38.676Z,14.25
2022-09-12T01:26:26.108Z,14.31
2022-09-12T01:29:15.684Z,14.33
2022-09-12T01:31:51.630Z,14.24
2022-09-12T01:34:25.285Z,14.20
2022-09-12T01:37:05.057Z,14.20
2022-09-12T01:39:43.436Z,14.18
2022-09-12T01:42:17.432Z,14.16
2022-09-12T01:44:54.808Z,14.00
2022-09-12T01:47:31.329Z,14.10
2022-09-12T01:50:02.813Z,14.06
2022-09-12T01:52:36.074Z,13.99
2022-09-12T01:55:11.319Z,13.86
2022-09-12T01:57:51.092Z,14.01
2022-09-12T02:00:19.560Z,14.08
2022-09-12T02:02:53.525Z,13.84
2022-09-12T02:05:27.960Z,13.60
2022-09-12T02:08:02.349Z,13.58
2022-09-12T02:10:32.913Z,13.65
2022-09-12T02:13:07.878Z,13.65
2022-09-12T02:15:39.845Z,13.55
2022-09-12T02:18:12.836Z,13.53
2022-09-12T02:20:50.261Z,13.52
2022-09-12T02:23:22.631Z,13.52
2022-09-12T02:25:54.501Z,13.52
2022-09-12T02:28:26.035Z,13.45
2022-09-12T02:30:59.542Z,13.37
2022-09-12T02:33:32.978Z,13.40
2022-09-12T02:36:10.776Z,13.46
2022-09-12T02:38:44.733Z,13.52
2022-09-12T02:41:14.303Z,13.47
2022-09-12T02:43:41.731Z,13.50
2022-09-12T02:46:16.100Z,13.47
2022-09-12T02:48:44.800Z,13.47
2022-09-12T02:51:12.345Z,13.49
2022-09-12T02:53:40.382Z,13.36
2022-09-12T02:56:14.292Z,13.26
2022-09-12T02:58:41.584Z,13.33
2022-09-12T03:01:16.414Z,13.26
2022-09-12T03:04:05.865Z,13.05
2022-09-12T03:06:37.823Z,13.01
2022-09-12T03:09:13.759Z,12.95
2022-09-12T03:12:00.471Z,12.88
2022-09-12T03:14:52.330Z,12.80
2022-09-12T03:17:27.462Z,12.62
2022-09-12T03:20:03.187Z,12.66
2022-09-12T03:22:37.577Z,12.75
2022-09-12T03:25:13.973Z,12.80
2022-09-12T03:27:46.344Z,12.79
2022-09-12T03:30:13.591Z,12.88
2022-09-12T03:32:42.625Z,12.94
2022-09-12T03:35:12.299Z,13.04
2022-09-12T03:37:39.568Z,12.91
2022-09-12T03:40:08.638Z,13.01
2022-09-12T03:42:36.028Z,12.99
2022-09-12T03:45:03.925Z,12.92
2022-09-12T03:47:31.382Z,12.84
2022-09-12T03:49:58.653Z,12.84
2022-09-12T03:52:27.358Z,12.81
2022-09-12T03:54:54.552Z,12.71
2022-09-12T03:57:21.872Z,12.62
2022-09-12T03:59:49.290Z,12.63
2022-09-12T04:02:16.683Z,12.80
2022-09-12T04:04:44.078Z,12.82
2022-09-12T04:07:11.481Z,12.77
2022-09-12T04:09:40.224Z,12.75
2022-09-12T04:12:07.585Z,12.76
2022-09-12T04:14:34.996Z,12.66
2022-09-12T04:17:02.283Z,12.73
2022-09-12T04:19:29.646Z,12.77
2022-09-12T04:21:56.932Z,12.62
2022-09-12T04:24:24.180Z,12.58
2022-09-12T04:26:52.802Z,12.61
2022-09-12T04:29:20.116Z,12.43
2022-09-12T04:31:47.897Z,12.43
2022-09-12T04:34:15.157Z,12.45
2022-09-12T04:36:42.760Z,12.32
2022-09-12T04:39:11.429Z,12.43
2022-09-12T04:41:39.760Z,12.35
2022-09-12T04:44:12.193Z,12.31
2022-09-12T04:46:41.733Z,12.19
2022-09-12T04:49:09.409Z,12.32
2022-09-12T04:51:38.820Z,12.54
2022-09-12T04:54:08.525Z,12.64
2022-09-12T04:56:38.912Z,12.69
2022-09-12T04:59:08.161Z,12.71
2022-09-12T05:01:36.086Z,12.66
2022-09-12T05:04:03.442Z,12.58
2022-09-12T05:06:33.093Z,12.59
2022-09-12T05:09:00.909Z,12.53
2022-09-12T05:11:46.929Z,12.55
2022-09-12T05:14:18.636Z,12.48
2022-09-12T05:16:49.176Z,12.48
2022-09-12T05:19:17.397Z,12.61
2022-09-12T05:21:44.737Z,12.75
2022-09-12T05:24:12.076Z,12.80
2022-09-12T05:26:39.386Z,12.78
2022-09-12T05:29:06.596Z,12.88
2022-09-12T05:31:35.202Z,12.92
2022-09-12T05:34:02.573Z,12.97
2022-09-12T05:36:30.572Z,13.06
2022-09-12T05:38:59.943Z,13.18
2022-09-12T05:41:29.436Z,13.23
2022-09-12T05:43:58.195Z,13.22
2022-09-12T05:46:44.919Z,13.22
2022-09-12T05:49:14.021Z,13.25
2022-09-12T05:51:44.416Z,13.33
2022-09-12T05:54:13.806Z,13.44
2022-09-12T05:56:43.227Z,13.51
2022-09-12T05:59:13.023Z,13.55
2022-09-12T06:01:40.739Z,13.61
2022-09-12T06:04:08.639Z,13.70
2022-09-12T06:06:39.080Z,13.75
2022-09-12T06:09:06.320Z,13.82
2022-09-12T06:11:36.096Z,13.95
2022-09-12T06:14:03.989Z,14.00
2022-09-12T06:16:33.457Z,14.02
2022-09-12T06:19:02.763Z,14.10
2022-09-12T06:21:30.658Z,14.18
2022-09-12T06:23:59.268Z,14.19
2022-09-12T06:26:27.510Z,14.30
2022-09-12T06:28:56.228Z,14.28
2022-09-12T06:31:26.674Z,14.33
2022-09-12T06:33:55.445Z,14.36
2022-09-12T06:36:24.693Z,14.43
2022-09-12T06:38:56.229Z,14.51
2022-09-12T06:41:25.555Z,14.62
2022-09-12T06:43:53.659Z,14.71
2022-09-12T06:46:21.414Z,14.81
2022-09-12T06:48:50.281Z,14.90
2022-09-12T06:51:19.779Z,15.03
2022-09-12T06:53:48.292Z,15.16
2022-09-12T06:56:18.466Z,15.31
2022-09-12T06:58:48.030Z,15.33
2022-09-12T07:01:17.204Z,15.39
2022-09-12T07:03:48.940Z,15.51
2022-09-12T07:06:18.284Z,15.61
2022-09-12T07:08:46.297Z,15.74
2022-09-12T07:11:15.945Z,15.83
2022-09-12T07:13:45.536Z,15.92
2022-09-12T07:16:19.220Z,16.10
2022-09-12T07:18:51.230Z,16.29
2022-09-12T07:21:18.923Z,16.29
2022-09-12T07:23:46.882Z,16.35
2022-09-12T07:26:15.388Z,16.56
2022-09-12T07:28:43.320Z,16.60
2022-09-12T07:31:12.466Z,16.78
2022-09-12T07:33:42.265Z,16.79
2022-09-12T07:36:12.354Z,16.89
2022-09-12T07:38:39.937Z,17.07
2022-09-12T07:41:11.536Z,17.35
2022-09-12T07:43:39.047Z,17.44
2022-09-12T07:46:06.502Z,17.79
2022-09-12T07:48:33.945Z,17.92
2022-09-12T07:51:04.545Z,18.38
2022-09-12T07:53:34.063Z,18.56
2022-09-12T07:56:01.809Z,18.72
2022-09-12T07:58:29.666Z,18.77
2022-09-12T08:01:02.289Z,19.14
2022-09-12T08:03:29.612Z,19.15
2022-09-12T08:06:04.617Z,19.02
2022-09-12T08:08:32.087Z,18.84
2022-09-12T08:10:59.690Z,19.19
2022-09-12T08:13:27.812Z,19.40
2022-09-12T08:15:57.918Z,18.86
2022-09-12T08:18:25.499Z,18.99
2022-09-12T08:20:57.144Z,19.04
2022-09-12T08:23:26.639Z,19.14
2022-09-12T08:25:55.862Z,19.49
2022-09-12T08:28:23.539Z,19.40
2022-09-12T08:30:50.837Z,19.40
2022-09-12T08:33:18.467Z,19.58
2022-09-12T08:35:45.934Z,19.17
2022-09-12T08:38:13.192Z,19.39
2022-09-12T08:40:50.852Z,19.68
2022-09-12T08:43:33.717Z,19.92
2022-09-12T08:46:08.591Z,19.81
2022-09-12T08:48:36.386Z,20.01
2022-09-12T08:51:04.460Z,20.00
2022-09-12T08:53:35.230Z,20.05
2022-09-12T08:56:08.686Z,19.82
2022-09-12T08:58:39.925Z,19.84
2022-09-12T09:01:12.676Z,20.15
2022-09-12T09:03:56.608Z,20.23
2022-09-12T09:06:52.455Z,20.31
2022-09-12T09:09:31.477Z,20.06
2022-09-12T09:12:10.297Z,20.15
2022-09-12T09:14:49.823Z,20.20
2022-09-12T09:17:22.829Z,20.55
2022-09-12T09:19:56.315Z,20.32
2022-09-12T09:22:36.258Z,20.55
2022-09-12T09:25:08.223Z,20.57
2022-09-12T09:30:14.597Z,21.39
2022-09-12T09:32:44.652Z,21.19
2022-09-12T09:35:22.264Z,21.28
2022-09-12T09:38:01.677Z,20.86
2022-09-12T09:40:41.447Z,21.38
2022-09-12T09:43:20.315Z,21.64
2022-09-12T09:45:48.077Z,21.51
2022-09-12T09:48:20.899Z,22.04
2022-09-12T09:50:49.527Z,21.90
2022-09-12T09:53:33.001Z,22.12
2022-09-12T09:56:02.811Z,21.80
2022-09-12T09:58:34.070Z,22.10
2022-09-12T10:01:03.563Z,22.28
2022-09-12T10:03:32.914Z,22.33
2022-09-12T10:06:02.608Z,22.21
2022-09-12T10:08:32.281Z,21.86
2022-09-12T10:11:02.795Z,21.65
2022-09-12T10:13:39.316Z,21.58
2022-09-12T10:16:19.370Z,22.21
2022-09-12T10:18:46.707Z,22.17
2022-09-12T10:21:17.850Z,21.78
2022-09-12T10:23:46.579Z,22.06
2022-09-12T10:26:17.424Z,22.29
2022-09-12T10:28:51.645Z,22.66
2022-09-12T10:31:25.857Z,23.40
2022-09-12T10:33:53.156Z,22.48
2022-09-12T10:36:21.971Z,22.19
2022-09-12T10:38:51.167Z,22.52
2022-09-12T10:41:19.737Z,22.47
2022-09-12T10:43:49.268Z,22.29
2022-09-12T10:46:28.247Z,22.02
2022-09-12T10:49:19.788Z,22.62
2022-09-12T10:51:47.236Z,22.68
2022-09-12T10:54:16.969Z,23.00
2022-09-12T10:56:52.716Z,23.08
2022-09-12T10:59:33.133Z,23.32
2022-09-12T11:02:09.138Z,23.67
2022-09-12T11:04:50.193Z,24.14
2022-09-12T11:07:33.015Z,23.79
2022-09-12T11:10:09.410Z,24.01
2022-09-12T11:12:43.509Z,24.07
2022-09-12T11:15:30.734Z,24.50
2022-09-12T11:18:06.117Z,24.84
2022-09-12T11:20:53.443Z,24.06
2022-09-12T11:23:42.000Z,24.88
2022-09-12T11:26:22.245Z,25.20
2022-09-12T11:29:00.907Z,26.21
2022-09-12T11:32:10.681Z,26.67
2022-09-12T11:34:52.601Z,26.05
2022-09-12T11:37:37.999Z,26.26
2022-09-12T11:40:18.029Z,26.25
2022-09-12T11:42:47.587Z,25.18
2022-09-12T11:45:19.580Z,24.99
2022-09-12T11:47:52.204Z,24.80
2022-09-12T11:50:24.461Z,24.65
2022-09-12T11:52:54.893Z,24.20
2022-09-12T11:55:27.489Z,24.89
2022-09-12T11:57:56.576Z,25.37
2022-09-12T12:00:28.744Z,25.69
2022-09-12T12:03:04.710Z,25.68
2022-09-12T12:05:39.667Z,24.92
2022-09-12T12:08:07.711Z,25.36
2022-09-12T12:10:37.972Z,26.22
2022-09-12T12:13:13.443Z,26.48
2022-09-12T12:15:47.163Z,26.37
2022-09-12T12:18:19.071Z,26.33
2022-09-12T12:20:46.680Z,26.01
2022-09-12T12:23:26.024Z,25.76
2022-09-12T12:25:54.845Z,26.28
2022-09-12T12:28:58.260Z,24.92
2022-09-12T12:31:27.133Z,25.32
2022-09-12T12:34:19.249Z,25.27
2022-09-12T12:36:46.450Z,25.67
2022-09-12T12:39:56.901Z,25.50
2022-09-12T12:43:00.537Z,25.46
2022-09-12T12:45:47.943Z,27.08
2022-09-12T12:48:18.236Z,27.66
2022-09-12T12:50:46.920Z,26.81
2022-09-12T12:53:21.288Z,28.18
2022-09-12T12:55:51.374Z,28.24
2022-09-12T12:58:31.489Z,28.20
2022-09-12T13:01:10.353Z,27.27
2022-09-12T13:03:44.134Z,27.97
2022-09-12T13:06:29.896Z,28.78
2022-09-12T13:09:00.440Z,28.59
2022-09-12T13:11:31.977Z,27.13
2022-09-12T13:14:01.556Z,28.27
2022-09-12T13:16:39.417Z,26.90
2022-09-12T13:19:16.172Z,27.37
2022-09-12T13:21:56.199Z,28.60
2022-09-12T13:24:23.915Z,28.25
2022-09-12T13:26:51.249Z,28.27
2022-09-12T13:29:20.300Z,28.67
2022-09-12T13:31:51.073Z,27.14
2022-09-12T13:34:21.283Z,26.92
2022-09-12T13:37:21.503Z,26.60
2022-09-12T13:39:50.702Z,27.42
2022-09-12T13:42:39.704Z,27.94
2022-09-12T13:45:14.151Z,28.78
2022-09-12T13:47:43.043Z,28.28
2022-09-12T13:50:17.831Z,27.62
2022-09-12T13:52:52.126Z,28.43
2022-09-12T13:55:27.982Z,27.73
2022-09-12T13:58:01.011Z,28.05
2022-09-12T14:00:30.170Z,28.10
2022-09-12T14:02:57.901Z,28.39
2022-09-12T14:05:26.553Z,28.05
2022-09-12T14:08:01.106Z,28.41
2022-09-12T14:10:31.925Z,28.09
2022-09-12T14:13:00.819Z,27.67
2022-09-12T14:15:31.458Z,28.53
2022-09-12T14:18:01.690Z,29.03
2022-09-12T14:20:30.826Z,29.30
2022-09-12T14:23:02.701Z,28.23
2022-09-12T14:25:35.532Z,28.85
2022-09-12T14:28:03.694Z,28.72
2022-09-12T14:30:33.936Z,28.46
2022-09-12T14:33:06.292Z,28.67
2022-09-12T14:35:33.623Z,28.32
2022-09-12T14:38:09.040Z,27.97
2022-09-12T14:40:42.048Z,27.51
2022-09-12T14:43:20.771Z,27.82
2022-09-12T14:45:54.709Z,27.44
2022-09-12T14:48:22.258Z,27.85
2022-09-12T14:50:51.962Z,27.51
2022-09-12T14:53:30.532Z,27.50
2022-09-12T14:56:06.404Z,27.27
2022-09-12T14:58:33.850Z,27.26
2022-09-12T15:01:03.206Z,27.45
2022-09-12T15:03:33.701Z,27.20
2022-09-12T15:06:02.335Z,26.95
2022-09-12T15:08:31.719Z,26.71
2022-09-12T15:10:59.536Z,26.23
2022-09-12T15:13:27.988Z,26.58
2022-09-12T15:15:56.459Z,26.92
2022-09-12T15:18:25.833Z,26.98
2022-09-12T15:20:56.428Z,26.24
2022-09-12T15:23:33.487Z,25.72
2022-09-12T15:26:01.123Z,26.04
2022-09-12T15:28:30.849Z,25.61
2022-09-12T15:31:04.545Z,25.45
2022-09-12T15:33:31.887Z,25.66
2022-09-12T15:35:59.138Z,25.37
2022-09-12T15:38:26.891Z,25.94
2022-09-12T15:40:55.639Z,26.22
2022-09-12T15:43:23.296Z,26.57
2022-09-12T15:45:50.872Z,26.39
2022-09-12T15:48:18.572Z,25.72
2022-09-12T15:50:45.936Z,25.34
2022-09-12T15:53:15.011Z,25.00
2022-09-12T15:55:42.800Z,25.24
2022-09-12T15:58:11.953Z,24.92
2022-09-12T16:00:39.511Z,24.70
2022-09-12T16:03:06.797Z,24.65
2022-09-12T16:05:34.199Z,24.57
2022-09-12T16:08:01.799Z,24.66
2022-09-12T16:10:30.081Z,24.57
2022-09-12T16:12:57.683Z,24.73
2022-09-12T16:15:26.507Z,24.72
2022-09-12T16:17:54.008Z,24.97
2022-09-12T16:20:21.512Z,25.09
2022-09-12T16:22:48.774Z,25.51
2022-09-12T16:25:16.246Z,25.10
2022-09-12T16:27:43.796Z,25.08
2022-09-12T16:30:11.369Z,24.99
2022-09-12T16:32:40.243Z,24.91
2022-09-12T16:35:08.810Z,24.51
2022-09-12T16:37:36.098Z,25.15
2022-09-12T16:40:04.417Z,25.31
2022-09-12T16:42:32.122Z,25.27
2022-09-12T16:44:59.400Z,25.51
2022-09-12T16:47:26.753Z,25.35
2022-09-12T16:49:55.361Z,25.86
2022-09-12T16:52:22.670Z,25.39
2022-09-12T16:54:50.114Z,25.05
2022-09-12T16:57:17.466Z,24.46
2022-09-12T16:59:44.815Z,24.33
2022-09-12T17:02:12.533Z,24.13
2022-09-12T17:04:39.859Z,23.95
2022-09-12T17:07:09.092Z,23.88
2022-09-12T17:09:36.485Z,23.90
2022-09-12T17:12:04.196Z,23.71
2022-09-12T17:14:31.629Z,23.62
2022-09-12T17:16:58.873Z,23.52
2022-09-12T17:19:27.758Z,23.36
2022-09-12T17:21:55.966Z,23.49
2022-09-12T17:24:25.000Z,23.30
2022-09-12T17:26:52.945Z,23.18
2022-09-12T17:29:20.785Z,23.30
2022-09-12T17:31:48.278Z,23.17
2022-09-12T17:34:15.611Z,23.08
2022-09-12T17:36:44.360Z,22.90
2022-09-12T17:39:12.739Z,22.74
2022-09-12T17:41:42.293Z,22.61
2022-09-12T17:44:11.611Z,22.49
2022-09-12T17:46:39.888Z,22.37
2022-09-12T17:49:10.615Z,22.12
2022-09-12T17:51:37.980Z,22.09
2022-09-12T17:54:07.711Z,22.06
2022-09-12T17:56:35.991Z,22.03
2022-09-12T17:59:06.179Z,21.93
2022-09-12T18:01:33.894Z,21.91
2022-09-12T18:04:01.333Z,21.85
2022-09-12T18:06:30.553Z,21.79
2022-09-12T18:08:59.726Z,21.86
2022-09-12T18:11:27.053Z,21.72
2022-09-12T18:13:54.318Z,21.63
2022-09-12T18:16:22.986Z,21.54
2022-09-12T18:18:50.353Z,21.47
2022-09-12T18:21:18.216Z,21.50
2022-09-12T18:23:45.475Z,21.38
2022-09-12T18:26:13.536Z,21.31
2022-09-12T18:28:43.951Z,21.31
2022-09-12T18:31:13.978Z,21.24
2022-09-12T18:33:43.061Z,21.14
2022-09-12T18:36:12.271Z,21.10
2022-09-12T18:38:40.587Z,21.00
2022-09-12T18:41:09.382Z,20.98
2022-09-12T18:43:37.712Z,21.00
2022-09-12T18:48:35.608Z,20.85
2022-09-12T18:51:07.429Z,20.88
2022-09-12T18:53:35.693Z,20.78
2022-09-12T18:56:04.824Z,20.78
2022-09-12T18:58:32.145Z,20.65
2022-09-12T19:00:59.429Z,20.61
2022-09-12T19:03:26.961Z,20.66
2022-09-12T19:05:54.401Z,20.56
2022-09-12T19:08:23.076Z,20.47
2022-09-12T19:10:55.440Z,20.46
2022-09-12T19:13:23.487Z,20.31
2022-09-12T19:15:50.824Z,20.36
2022-09-12T19:18:18.253Z,20.33
2022-09-12T19:20:50.496Z,20.21
2022-09-12T19:23:18.400Z,20.22
2022-09-12T19:25:55.346Z,20.18
2022-09-12T19:28:22.856Z,20.13
2022-09-12T19:30:50.150Z,20.07
2022-09-12T19:33:17.577Z,19.98
2022-09-12T19:35:44.844Z,20.04
2022-09-12T19:38:13.437Z,19.95
2022-09-12T19:40:40.781Z,19.92
2022-09-12T19:43:10.062Z,19.82
2022-09-12T19:45:37.986Z,19.80
2022-09-12T19:48:05.406Z,19.76
2022-09-12T19:50:32.760Z,19.74
2022-09-12T19:53:00.506Z,19.69
2022-09-12T19:55:27.747Z,19.69
2022-09-12T19:57:55.082Z,19.70
2022-09-12T20:00:23.812Z,19.68
2022-09-12T20:02:51.270Z,19.59
2022-09-12T20:05:21.175Z,19.56
2022-09-12T20:07:48.567Z,19.57
2022-09-12T20:10:16.128Z,19.50
2022-09-12T20:12:43.742Z,19.44
2022-09-12T20:15:12.097Z,19.43
2022-09-12T20:17:40.828Z,19.32
2022-09-12T20:20:09.105Z,19.37
2022-09-12T20:22:40.054Z,19.33
2022-09-12T20:25:08.348Z,19.37
2022-09-12T20:27:35.713Z,19.37
2022-09-12T20:30:03.574Z,19.35
2022-09-12T20:32:31.042Z,19.37
2022-09-12T20:34:59.950Z,19.34
2022-09-12T20:37:29.301Z,19.43
2022-09-12T20:39:56.922Z,19.38
2022-09-12T20:42:24.331Z,19.38
2022-09-12T20:44:51.743Z,19.38
2022-09-12T20:47:19.125Z,19.31
2022-09-12T20:49:46.580Z,19.26
2022-09-12T20:52:15.346Z,19.17
2022-09-12T20:54:42.694Z,19.13
2022-09-12T20:57:10.157Z,19.06
2022-09-12T20:59:37.556Z,18.99
2022-09-12T21:02:05.359Z,18.98
2022-09-12T21:04:32.797Z,18.95
2022-09-12T21:07:00.160Z,18.92
2022-09-12T21:09:28.940Z,18.87
2022-09-12T21:11:56.486Z,18.88
2022-09-12T21:14:24.585Z,18.88
2022-09-12T21:16:51.964Z,18.85
2022-09-12T21:19:19.341Z,18.86
2022-09-12T21:21:46.623Z,18.88
2022-09-12T21:24:14.087Z,18.81
2022-09-12T21:26:42.833Z,18.83
2022-09-12T21:29:10.196Z,18.83
2022-09-12T21:31:40.528Z,18.86
2022-09-12T21:34:07.933Z,18.90
2022-09-12T21:36:35.164Z,18.84
2022-09-12T21:39:02.362Z,18.93
2022-09-12T21:41:29.731Z,18.87
2022-09-12T21:43:58.461Z,18.86
2022-09-12T21:46:25.873Z,18.90
2022-09-12T21:48:53.214Z,18.90
2022-09-12T21:51:20.579Z,18.92
2022-09-12T21:53:48.226Z,18.85
2022-09-12T21:56:15.593Z,18.83
2022-09-12T21:58:43.167Z,18.83
2022-09-12T22:01:12.699Z,18.87
2022-09-12T22:03:40.341Z,18.87
2022-09-12T22:06:07.577Z,18.91
2022-09-12T22:08:36.419Z,18.88
2022-09-12T22:11:06.105Z,18.90
2022-09-12T22:13:33.568Z,18.90
2022-09-12T22:16:01.332Z,18.90
2022-09-12T22:18:30.083Z,18.87
2022-09-12T22:21:02.612Z,18.88
2022-09-12T22:23:29.971Z,18.90
2022-09-12T22:25:57.724Z,18.91
2022-09-12T22:28:24.977Z,18.82
2022-09-12T22:30:52.510Z,18.85
2022-09-12T22:33:20.069Z,18.84
2022-09-12T22:35:48.774Z,18.78
2022-09-12T22:38:16.052Z,18.83
2022-09-12T22:40:43.399Z,18.79
2022-09-12T22:43:10.977Z,18.75
2022-09-12T22:45:40.728Z,18.80
2022-09-12T22:48:09.351Z,18.75
2022-09-12T22:50:36.823Z,18.78
2022-09-12T22:53:05.535Z,18.70
2022-09-12T22:55:32.754Z,18.71
2022-09-12T22:58:00.263Z,18.72
2022-09-12T23:00:27.576Z,18.73
2022-09-12T23:02:55.053Z,18.68
2022-09-12T23:05:22.346Z,18.70
2022-09-12T23:07:50.767Z,18.64
2022-09-12T23:10:19.389Z,18.64
2022-09-12T23:12:46.652Z,18.61
2022-09-12T23:15:14.029Z,18.59
2022-09-12T23:17:41.260Z,18.55
2022-09-12T23:20:09.045Z,18.61
2022-09-12T23:22:36.550Z,18.61
2022-09-12T23:25:04.364Z,18.60
2022-09-12T23:27:32.988Z,18.60
2022-09-12T23:30:00.226Z,18.62
2022-09-12T23:32:27.556Z,18.62
2022-09-12T23:34:54.842Z,18.64
2022-09-12T23:37:22.140Z,18.72
2022-09-12T23:39:49.323Z,18.63
2022-09-12T23:42:16.835Z,18.65
2022-09-12T23:44:45.465Z,18.63
2022-09-12T23:47:12.783Z,18.60
2022-09-12T23:49:40.027Z,18.62
2022-09-12T23:52:07.222Z,18.66
2022-09-12T23:54:34.443Z,18.66
2022-09-12T23:57:01.684Z,18.64
2022-09-12T23:59:28.956Z,18.70
